Time;durP1;ratioP1;P1;durP2;ratioP2;P2;SDS_P1;SDS_P2;PMS_P1;PMS_P2;Temp;Humidity;BMP_temperature;BMP_pressure;BME280_temperature;BME280_humidity;BME280_pressure;Samples;Min_cycle;Max_cycle;Signal;HPM_P1;HPM_P2
2021/09/11 00:00:45;;;;;;;9.03;8.33;;;;;;;21.92;71.83;96486.34;4994669;28;20228;-61
2021/09/11 00:03:11;;;;;;;9.30;8.50;;;;;;;21.84;71.97;96481.66;4982884;28;20241;-63
2021/09/11 00:05:36;;;;;;;8.90;8.20;;;;;;;21.92;71.68;96475.63;4975104;28;20580;-61
2021/09/11 00:08:02;;;;;;;9.23;8.53;;;;;;;21.70;72.61;96472.78;4975267;28;20189;-60
2021/09/11 00:10:28;;;;;;;9.60;8.90;;;;;;;21.76;72.34;96468.16;4975233;28;20535;-63
2021/09/11 00:12:54;;;;;;;9.13;8.33;;;;;;;21.88;71.97;96471.97;4974856;28;20166;-63
2021/09/11 00:15:19;;;;;;;8.33;7.73;;;;;;;21.75;72.50;96469.22;4974921;28;20189;-63
2021/09/11 00:17:47;;;;;;;8.80;8.10;;;;;;;21.76;72.53;96458.22;4974605;28;20429;-63
2021/09/11 00:20:12;;;;;;;9.07;8.37;;;;;;;21.73;72.50;96460.69;4974934;28;20257;-63
2021/09/11 00:22:38;;;;;;;11.20;8.50;;;;;;;21.75;72.63;96458.53;4974677;28;20513;-61
2021/09/11 00:25:04;;;;;;;8.00;7.40;;;;;;;21.77;72.43;96456.34;4975025;28;20194;-63
2021/09/11 00:27:29;;;;;;;9.07;8.27;;;;;;;21.78;72.57;96457.91;4974901;28;20217;-60
2021/09/11 00:29:56;;;;;;;8.93;8.23;;;;;;;21.86;72.43;96462.63;4974925;28;20524;-63
2021/09/11 00:32:21;;;;;;;8.33;7.67;;;;;;;21.71;72.69;96461.00;4974695;28;20432;-63
2021/09/11 00:34:46;;;;;;;9.40;8.60;;;;;;;21.91;72.05;96457.19;4974479;28;20201;-63
2021/09/11 00:37:12;;;;;;;8.73;8.10;;;;;;;21.91;72.29;96462.53;4974718;28;20213;-61
2021/09/11 00:39:37;;;;;;;8.57;7.90;;;;;;;21.85;72.37;96461.06;4974696;28;20585;-63
2021/09/11 00:42:03;;;;;;;9.13;8.43;;;;;;;21.82;72.50;96459.75;4974666;28;20182;-63
2021/09/11 00:44:29;;;;;;;10.00;9.20;;;;;;;21.72;73.13;96459.91;4974444;28;20181;-63
2021/09/11 00:46:55;;;;;;;8.50;7.90;;;;;;;21.62;73.61;96457.41;4974354;28;20174;-63
2021/09/11 00:49:20;;;;;;;9.90;9.07;;;;;;;21.74;73.23;96457.72;4974708;28;20461;-63
2021/09/11 00:51:46;;;;;;;8.13;7.53;;;;;;;21.50;74.30;96455.16;4974773;28;20206;-63
2021/09/11 00:54:12;;;;;;;9.17;8.37;;;;;;;21.54;74.37;96470.66;4974203;28;20185;-61
2021/09/11 00:56:38;;;;;;;8.97;8.17;;;;;;;21.53;74.58;96464.50;4974246;28;20433;-60
2021/09/11 00:59:03;;;;;;;9.00;8.30;;;;;;;21.56;74.77;96466.59;4974728;28;20413;-62
2021/09/11 01:01:29;;;;;;;8.57;7.87;;;;;;;21.67;74.59;96462.66;4974580;28;20181;-61
2021/09/11 01:03:54;;;;;;;9.00;8.27;;;;;;;21.65;75.17;96464.81;4974123;28;20193;-60
2021/09/11 01:06:20;;;;;;;8.63;8.03;;;;;;;21.72;75.30;96470.63;4974008;28;20201;-63
2021/09/11 01:08:46;;;;;;;8.30;7.67;;;;;;;21.69;75.45;96471.19;4974217;28;20198;-61
2021/09/11 01:11:12;;;;;;;8.93;8.23;;;;;;;21.45;76.57;96473.97;4973770;28;20194;-61
2021/09/11 01:13:38;;;;;;;8.87;8.17;;;;;;;21.52;76.40;96468.28;4971394;28;20602;-61
2021/09/11 01:16:04;;;;;;;9.00;8.27;;;;;;;21.38;77.19;96470.06;4958748;28;20214;-63
2021/09/11 01:18:31;;;;;;;8.37;7.77;;;;;;;21.44;77.06;96471.59;4970853;28;20418;-62
2021/09/11 01:20:57;;;;;;;7.57;6.97;;;;;;;21.50;76.67;96465.09;4977704;28;20472;-61
2021/09/11 01:23:23;;;;;;;8.47;7.80;;;;;;;21.34;77.54;96464.53;4977899;28;20406;-62
2021/09/11 01:25:49;;;;;;;8.97;8.27;;;;;;;21.30;78.54;96473.44;4977998;28;20492;-63
2021/09/11 01:28:15;;;;;;;8.50;7.70;;;;;;;21.17;78.93;96468.81;4976682;28;20457;-60
2021/09/11 01:30:40;;;;;;;9.30;8.50;;;;;;;21.17;79.06;96464.25;4977891;28;20537;-60
2021/09/11 01:33:06;;;;;;;9.27;8.47;;;;;;;21.09;79.49;96467.56;4977597;28;20413;-63
2021/09/11 01:35:32;;;;;;;9.20;8.43;;;;;;;21.05;79.48;96465.78;4977533;28;20700;-61
2021/09/11 01:37:58;;;;;;;8.50;7.80;;;;;;;20.98;80.03;96463.41;4977822;28;20182;-63
2021/09/11 01:40:23;;;;;;;9.13;8.23;;;;;;;21.09;79.69;96472.91;4978056;28;20198;-62
2021/09/11 01:42:49;;;;;;;8.33;7.63;;;;;;;21.16;79.34;96470.66;4977588;28;20541;-61
2021/09/11 01:45:18;;;;;;;8.70;8.10;;;;;;;21.26;79.21;96470.53;4977635;28;20585;-60
2021/09/11 01:47:45;;;;;;;8.60;7.75;;;;;;;21.34;78.70;96477.13;4977684;28;20774;-62
2021/09/11 01:50:13;;;;;;;8.63;7.80;;;;;;;21.40;78.29;96474.06;4977358;28;20455;-61
2021/09/11 01:52:39;;;;;;;8.33;7.67;;;;;;;21.42;78.32;96479.91;4977348;28;20424;-61
2021/09/11 01:55:07;;;;;;;8.43;7.80;;;;;;;21.47;78.27;96479.84;4977911;28;20421;-62
2021/09/11 01:57:35;;;;;;;7.97;7.37;;;;;;;21.52;78.02;96485.09;4977609;28;20186;-61
2021/09/11 02:00:00;;;;;;;8.50;7.80;;;;;;;21.30;78.63;96478.78;4977365;28;20410;-62
2021/09/11 02:02:26;;;;;;;8.07;7.40;;;;;;;21.34;78.84;96485.13;4977396;28;20421;-60
2021/09/11 02:04:51;;;;;;;7.77;7.13;;;;;;;21.30;78.79;96487.59;4976684;28;20201;-60
2021/09/11 02:07:16;;;;;;;8.90;8.20;;;;;;;21.20;79.02;96486.94;4977378;28;20240;-62
2021/09/11 02:09:42;;;;;;;9.07;8.00;;;;;;;21.27;78.85;96493.50;4977236;28;20198;-63
2021/09/11 02:12:07;;;;;;;9.43;8.53;;;;;;;21.06;79.73;96488.75;4977422;28;20202;-62
2021/09/11 02:14:33;;;;;;;8.40;7.70;;;;;;;21.06;79.71;96486.88;4976846;28;20696;-60
2021/09/11 02:16:59;;;;;;;8.60;8.00;;;;;;;21.07;79.81;96485.78;4977429;28;20436;-61
2021/09/11 02:19:24;;;;;;;8.73;8.03;;;;;;;21.03;79.83;96489.31;4976957;28;20392;-62
2021/09/11 02:21:49;;;;;;;8.73;8.03;;;;;;;21.03;79.89;96483.97;4977009;28;20182;-61
2021/09/11 02:24:15;;;;;;;8.83;8.13;;;;;;;21.07;79.56;96479.66;4975486;28;20190;-61
2021/09/11 02:26:42;;;;;;;8.27;7.67;;;;;;;21.09;79.55;96472.13;4976979;28;20174;-62
2021/09/11 02:29:07;;;;;;;8.93;8.17;;;;;;;20.99;80.15;96481.09;4976809;28;20205;-61
2021/09/11 02:31:32;;;;;;;9.50;8.60;;;;;;;21.09;79.63;96474.78;4977090;28;20422;-62
2021/09/11 02:33:58;;;;;;;9.40;8.63;;;;;;;21.08;80.00;96481.22;4976318;28;20173;-60
2021/09/11 02:36:23;;;;;;;8.80;7.90;;;;;;;21.14;79.81;96480.09;4976760;28;20198;-61
2021/09/11 02:38:49;;;;;;;8.83;8.13;;;;;;;21.20;79.59;96479.72;4976882;28;20217;-62
2021/09/11 02:41:14;;;;;;;8.90;8.20;;;;;;;21.08;79.89;96483.91;4976814;28;20205;-61
2021/09/11 02:43:40;;;;;;;9.40;8.40;;;;;;;21.21;79.59;96486.66;4976386;28;20170;-60
2021/09/11 02:46:05;;;;;;;9.00;8.30;;;;;;;21.23;79.42;96489.03;4976061;28;20233;-60
2021/09/11 02:48:31;;;;;;;9.80;9.00;;;;;;;21.19;79.38;96490.69;4976521;28;20198;-62
2021/09/11 02:50:57;;;;;;;9.43;8.53;;;;;;;20.86;81.01;96500.47;4976708;28;20181;-61
2021/09/11 02:53:22;;;;;;;9.67;8.80;;;;;;;20.91;81.03;96497.72;4976606;28;20256;-61
2021/09/11 02:55:48;;;;;;;9.57;8.70;;;;;;;20.90;81.43;96488.13;4976375;28;20469;-63
2021/09/11 02:58:13;;;;;;;9.63;8.73;;;;;;;20.83;81.69;96487.69;4975127;28;20170;-63
2021/09/11 03:00:39;;;;;;;8.67;8.07;;;;;;;20.85;81.65;96484.72;4976365;28;20202;-63
2021/09/11 03:03:04;;;;;;;9.70;8.93;;;;;;;20.78;82.18;96487.72;4975897;28;20238;-61
2021/09/11 03:05:30;;;;;;;8.27;7.63;;;;;;;20.58;83.15;96488.00;4976149;28;20194;-59
2021/09/11 03:07:55;;;;;;;8.80;8.10;;;;;;;20.61;83.16;96486.63;4993979;28;20176;-62
2021/09/11 03:10:21;;;;;;;8.57;7.93;;;;;;;20.56;83.28;96478.69;4995617;28;20174;-62
2021/09/11 03:12:46;;;;;;;8.20;7.50;;;;;;;20.61;82.90;96483.97;4993909;28;20174;-62
2021/09/11 03:15:12;;;;;;;9.03;8.03;;;;;;;20.75;82.58;96477.63;4995445;28;20194;-62
2021/09/11 03:17:37;;;;;;;8.70;8.00;;;;;;;20.53;83.78;96481.94;4978424;28;20637;-61
2021/09/11 03:20:04;;;;;;;8.37;7.67;;;;;;;20.65;83.13;96474.31;4975964;28;20602;-62
2021/09/11 03:22:29;;;;;;;7.67;7.07;;;;;;;20.61;83.31;96479.41;4975935;28;20178;-60
2021/09/11 03:24:54;;;;;;;7.87;7.17;;;;;;;20.62;83.12;96472.97;4975523;28;20517;-63
2021/09/11 03:27:20;;;;;;;8.30;7.60;;;;;;;20.56;83.62;96474.16;4975855;28;20534;-62
2021/09/11 03:29:45;;;;;;;8.20;7.60;;;;;;;20.45;83.77;96472.69;4975894;28;20344;-62
2021/09/11 03:32:11;;;;;;;8.13;7.43;;;;;;;20.53;83.81;96477.38;4975631;28;20216;-61
2021/09/11 03:34:37;;;;;;;8.00;7.40;;;;;;;20.61;83.54;96481.28;4975038;28;20231;-61
2021/09/11 03:37:03;;;;;;;6.93;6.43;;;;;;;20.66;82.92;96484.69;4975566;28;21010;-60
2021/09/11 03:39:28;;;;;;;7.07;6.57;;;;;;;20.66;83.28;96479.34;4975395;28;20174;-62
2021/09/11 03:41:54;;;;;;;6.80;6.30;;;;;;;20.75;82.72;96474.97;4975855;28;20410;-60
2021/09/11 03:44:19;;;;;;;7.07;6.47;;;;;;;20.80;82.54;96474.88;4975138;28;20679;-60
2021/09/11 03:46:45;;;;;;;7.90;7.30;;;;;;;20.59;83.44;96480.78;4975595;28;20178;-60
2021/09/11 03:49:10;;;;;;;7.80;7.20;;;;;;;20.65;83.59;96476.97;4974806;28;20205;-63
2021/09/11 03:51:36;;;;;;;12.13;7.20;;;;;;;20.56;84.00;96482.16;4975360;28;20177;-61
2021/09/11 03:54:02;;;;;;;6.07;5.63;;;;;;;20.69;83.18;96478.78;4974934;28;20175;-61
2021/09/11 03:56:28;;;;;;;7.70;7.10;;;;;;;20.56;83.94;96478.69;4975307;28;20425;-63
2021/09/11 03:58:54;;;;;;;6.97;6.47;;;;;;;20.55;84.30;96479.75;4974987;28;20201;-63
2021/09/11 04:01:19;;;;;;;6.90;6.40;;;;;;;20.59;84.23;96476.22;4975419;28;20758;-63
2021/09/11 04:03:44;;;;;;;7.30;6.60;;;;;;;20.71;83.43;96478.50;4974909;28;20181;-62
2021/09/11 04:06:11;;;;;;;6.30;5.80;;;;;;;20.65;83.63;96472.44;4975252;28;20296;-61
2021/09/11 04:08:37;;;;;;;5.90;5.50;;;;;;;20.77;83.32;96477.34;4974746;28;20204;-63
2021/09/11 04:11:02;;;;;;;6.20;5.80;;;;;;;20.64;84.02;96478.84;4975290;28;20410;-63
2021/09/11 04:13:27;;;;;;;6.30;5.80;;;;;;;20.57;84.45;96485.59;4974746;28;20175;-62
2021/09/11 04:15:53;;;;;;;6.00;5.50;;;;;;;20.41;85.17;96488.47;4974995;28;20193;-61
2021/09/11 04:18:18;;;;;;;6.20;5.70;;;;;;;20.39;85.26;96481.81;4974578;28;20178;-61
2021/09/11 04:20:43;;;;;;;5.63;5.23;;;;;;;20.48;85.10;96490.78;4975151;28;20240;-62
2021/09/11 04:23:09;;;;;;;5.50;5.10;;;;;;;20.54;84.96;96486.97;4974521;28;20174;-63
2021/09/11 04:25:34;;;;;;;6.33;5.93;;;;;;;20.68;84.57;96484.41;4974636;28;20194;-62
2021/09/11 04:28:00;;;;;;;5.43;5.03;;;;;;;20.78;84.26;96490.41;4974759;28;20617;-60
2021/09/11 04:30:25;;;;;;;5.53;5.13;;;;;;;20.60;84.60;96490.38;4974509;28;20601;-62
2021/09/11 04:32:51;;;;;;;6.17;5.70;;;;;;;20.63;84.45;96487.13;4974524;28;20179;-61
2021/09/11 04:35:16;;;;;;;5.77;5.27;;;;;;;20.63;84.41;96482.59;4974652;28;20186;-60
2021/09/11 04:37:41;;;;;;;6.33;5.83;;;;;;;20.60;84.92;96490.38;4974588;28;20641;-60
2021/09/11 04:40:07;;;;;;;6.10;5.60;;;;;;;20.54;84.86;96492.31;4974760;28;20180;-63
2021/09/11 04:42:33;;;;;;;5.93;5.43;;;;;;;20.59;84.92;96488.78;4974655;28;20181;-61
2021/09/11 04:44:58;;;;;;;5.60;5.20;;;;;;;20.49;84.97;96495.03;4973946;28;20197;-60
2021/09/11 04:47:23;;;;;;;5.77;5.30;;;;;;;20.63;84.57;96497.81;4973542;28;20193;-61
2021/09/11 04:49:49;;;;;;;6.20;5.80;;;;;;;20.66;84.35;96498.03;4974497;28;20735;-62
2021/09/11 04:52:14;;;;;;;5.90;5.20;;;;;;;20.59;85.05;96488.78;4974548;28;20178;-61
2021/09/11 04:54:39;;;;;;;8.73;5.57;;;;;;;20.71;84.38;96497.19;4974302;28;20683;-60
2021/09/11 04:57:05;;;;;;;5.90;5.50;;;;;;;20.61;84.79;96502.66;4974535;28;20201;-60
2021/09/11 04:59:30;;;;;;;5.20;4.80;;;;;;;20.68;84.52;96497.75;4974739;28;20265;-60
2021/09/11 05:01:57;;;;;;;5.30;4.90;;;;;;;20.71;84.23;96500.66;4974222;28;20194;-62
2021/09/11 05:04:22;;;;;;;5.10;4.70;;;;;;;20.83;84.11;96500.25;4974044;28;20584;-61
2021/09/11 05:06:48;;;;;;;5.20;4.80;;;;;;;20.64;84.82;96499.41;4974335;28;20452;-61
2021/09/11 05:09:13;;;;;;;4.33;4.03;;;;;;;20.74;84.21;96504.63;4974399;28;20205;-60
2021/09/11 05:11:38;;;;;;;4.63;4.33;;;;;;;20.55;85.49;96501.91;4974322;28;20178;-61
2021/09/11 05:14:04;;;;;;;5.57;5.07;;;;;;;20.53;85.33;96508.63;4974009;28;20174;-61
2021/09/11 05:16:29;;;;;;;5.10;4.70;;;;;;;20.60;85.03;96509.09;4973968;28;20553;-62
2021/09/11 05:18:55;;;;;;;5.00;4.60;;;;;;;20.39;85.96;96514.66;4974426;28;20179;-62
2021/09/11 05:21:20;;;;;;;4.70;4.30;;;;;;;20.32;86.77;96519.53;4974307;28;20206;-63
2021/09/11 05:23:46;;;;;;;5.10;4.70;;;;;;;20.45;85.98;96508.16;4974187;28;20541;-61
2021/09/11 05:26:11;;;;;;;6.67;5.23;;;;;;;20.48;86.13;96512.16;4974175;28;20190;-64
2021/09/11 05:28:36;;;;;;;5.50;5.00;;;;;;;20.59;85.52;96510.94;4974321;28;20206;-61
2021/09/11 05:31:02;;;;;;;4.90;4.60;;;;;;;20.51;85.75;96516.13;4973972;28;20174;-61
2021/09/11 05:33:27;;;;;;;4.80;4.43;;;;;;;20.63;85.57;96516.53;4973894;28;20182;-61
2021/09/11 05:35:53;;;;;;;5.87;5.37;;;;;;;20.48;86.28;96512.94;4974082;28;20190;-61
2021/09/11 05:38:18;;;;;;;5.03;4.63;;;;;;;20.61;85.83;96513.34;4974056;28;20257;-63
2021/09/11 05:40:44;;;;;;;5.10;4.70;;;;;;;20.48;86.29;96509.47;4973745;28;20592;-63
2021/09/11 05:43:09;;;;;;;5.50;5.10;;;;;;;20.48;86.56;96517.47;4973482;28;20178;-61
2021/09/11 05:45:35;;;;;;;4.40;4.10;;;;;;;20.35;86.86;96521.63;4972898;28;20230;-64
2021/09/11 05:48:00;;;;;;;5.57;5.17;;;;;;;20.22;87.85;96524.97;4973923;28;20233;-63
2021/09/11 05:50:26;;;;;;;5.10;4.70;;;;;;;20.16;88.21;96527.94;4974128;28;20181;-60
2021/09/11 05:52:51;;;;;;;5.03;4.63;;;;;;;20.31;87.72;96527.81;4973909;28;20185;-61
2021/09/11 05:55:16;;;;;;;4.60;4.30;;;;;;;20.37;87.76;96529.34;4973993;28;20280;-62
2021/09/11 05:57:42;;;;;;;5.30;4.80;;;;;;;20.41;87.49;96525.03;4972457;28;20656;-61
2021/09/11 06:00:09;;;;;;;5.47;4.97;;;;;;;20.44;87.58;96527.94;4977506;28;20186;-63
2021/09/11 06:02:34;;;;;;;5.10;4.70;;;;;;;20.37;87.87;96518.66;4977356;28;20578;-63
2021/09/11 06:05:00;;;;;;;5.47;5.07;;;;;;;20.40;87.88;96523.44;4976037;28;21060;-61
2021/09/11 06:07:25;;;;;;;4.87;4.43;;;;;;;20.55;87.32;96525.94;4989833;28;20177;-61
2021/09/11 06:09:51;;;;;;;4.93;4.63;;;;;;;20.37;88.17;96524.81;4997093;28;20205;-61
2021/09/11 06:12:16;;;;;;;4.40;4.10;;;;;;;20.36;88.54;96531.22;4991314;28;20232;-63
2021/09/11 06:14:42;;;;;;;3.97;3.67;;;;;;;20.31;89.12;96525.13;4976836;28;20680;-61
2021/09/11 06:17:08;;;;;;;4.03;3.73;;;;;;;20.35;88.64;96529.63;4976859;28;20222;-61
2021/09/11 06:19:34;;;;;;;4.30;3.90;;;;;;;20.36;88.58;96536.56;4977127;28;20641;-62
2021/09/11 06:22:00;;;;;;;4.17;3.87;;;;;;;20.42;88.54;96539.97;4977036;28;20421;-60
2021/09/11 06:24:26;;;;;;;4.40;4.10;;;;;;;20.36;88.86;96541.91;4976575;28;20406;-63
2021/09/11 06:26:51;;;;;;;4.93;4.53;;;;;;;20.44;88.87;96535.16;4977178;28;20167;-61
2021/09/11 06:29:17;;;;;;;4.90;4.50;;;;;;;20.34;89.03;96545.94;4976743;28;20233;-62
2021/09/11 06:31:42;;;;;;;4.00;3.60;;;;;;;20.09;90.12;96544.25;4976471;28;20181;-60
2021/09/11 06:34:08;;;;;;;7.53;3.90;;;;;;;20.26;89.82;96538.53;4976289;28;20185;-61
2021/09/11 06:36:33;;;;;;;4.20;3.80;;;;;;;20.16;90.46;96543.97;4976616;28;20209;-62
2021/09/11 06:38:58;;;;;;;3.60;3.30;;;;;;;20.17;89.94;96537.56;4976743;28;20679;-62
2021/09/11 06:41:24;;;;;;;4.20;3.80;;;;;;;20.34;89.69;96543.28;4976768;28;20174;-62
2021/09/11 06:43:49;;;;;;;3.73;3.43;;;;;;;20.46;89.23;96549.81;4976416;28;20306;-62
2021/09/11 06:46:15;;;;;;;3.70;3.37;;;;;;;20.45;88.96;96550.09;4976581;28;20670;-61
2021/09/11 06:48:40;;;;;;;5.13;3.67;;;;;;;20.38;89.12;96549.66;4976062;28;20572;-61
2021/09/11 06:51:05;;;;;;;3.60;3.30;;;;;;;20.45;89.31;96553.53;4976972;28;20181;-62
2021/09/11 06:53:31;;;;;;;2.80;2.60;;;;;;;20.40;89.43;96542.94;4976253;28;20522;-61
2021/09/11 06:55:56;;;;;;;5.33;3.23;;;;;;;20.56;88.63;96540.09;4976605;28;20293;-61
2021/09/11 06:58:22;;;;;;;3.93;3.53;;;;;;;20.47;89.15;96540.72;4976525;28;20171;-60
2021/09/11 07:00:47;;;;;;;3.50;3.23;;;;;;;20.61;88.57;96545.38;4976214;28;20253;-62
2021/09/11 07:03:13;;;;;;;3.70;3.50;;;;;;;20.40;89.16;96550.13;4975745;28;20189;-62
2021/09/11 07:05:38;;;;;;;6.13;3.37;;;;;;;20.35;89.43;96544.84;4976266;28;20190;-62
2021/09/11 07:08:04;;;;;;;3.43;3.23;;;;;;;20.29;90.16;96549.44;4977032;28;20546;-60
2021/09/11 07:10:29;;;;;;;3.83;3.53;;;;;;;20.22;90.94;96554.31;4975433;28;20185;-62
2021/09/11 07:12:54;;;;;;;4.03;3.20;;;;;;;20.41;90.10;96547.22;4975939;28;20180;-61
2021/09/11 07:15:20;;;;;;;4.37;3.43;;;;;;;20.17;91.19;96550.91;4975949;28;20193;-62
2021/09/11 07:17:45;;;;;;;4.57;3.70;;;;;;;20.34;90.47;96549.41;4976452;28;20201;-62
2021/09/11 07:20:11;;;;;;;5.33;3.70;;;;;;;20.47;90.12;96548.72;4976228;28;20538;-62
2021/09/11 07:22:36;;;;;;;3.93;3.63;;;;;;;20.54;89.95;96551.06;4975329;28;20212;-61
2021/09/11 07:25:02;;;;;;;5.37;3.43;;;;;;;20.52;89.42;96552.41;4975966;28;20558;-62
2021/09/11 07:27:29;;;;;;;4.33;3.93;;;;;;;20.66;88.93;96556.00;4976124;28;20728;-60
2021/09/11 07:29:56;;;;;;;3.90;3.60;;;;;;;20.70;89.24;96560.50;4975918;28;20485;-62
2021/09/11 07:32:21;;;;;;;4.03;3.73;;;;;;;20.82;88.38;96562.75;4975755;28;20842;-62
2021/09/11 07:34:47;;;;;;;3.77;3.47;;;;;;;20.89;88.71;96561.34;4975325;28;20439;-61
2021/09/11 07:37:12;;;;;;;3.77;3.50;;;;;;;20.94;87.46;96563.97;4975332;28;20564;-62
2021/09/11 07:39:39;;;;;;;3.93;3.63;;;;;;;20.96;87.35;96563.69;4975958;28;20174;-61
2021/09/11 07:42:05;;;;;;;4.80;4.30;;;;;;;20.93;88.13;96564.22;4975722;28;20253;-61
2021/09/11 07:44:30;;;;;;;4.83;4.43;;;;;;;21.01;87.96;96572.47;4973656;28;20461;-62
2021/09/11 07:46:55;;;;;;;3.80;3.50;;;;;;;21.00;87.56;96568.19;4975767;28;20182;-64
2021/09/11 07:49:21;;;;;;;4.63;4.23;;;;;;;21.15;87.43;96562.66;4975422;28;20202;-64
2021/09/11 07:51:46;;;;;;;4.93;4.43;;;;;;;21.08;87.91;96567.56;4975436;28;20174;-62
2021/09/11 07:54:11;;;;;;;3.90;3.70;;;;;;;21.26;86.96;96566.78;4975135;28;20170;-62
2021/09/11 07:56:37;;;;;;;3.97;3.67;;;;;;;21.14;86.40;96573.63;4975018;28;20238;-63
2021/09/11 07:59:02;;;;;;;5.23;3.83;;;;;;;21.23;87.09;96574.59;4975367;28;20648;-64
2021/09/11 08:01:27;;;;;;;4.20;3.90;;;;;;;21.29;86.37;96576.09;4974956;28;20186;-62
2021/09/11 08:03:53;;;;;;;4.77;4.27;;;;;;;21.31;86.40;96579.28;4974990;28;20177;-64
2021/09/11 08:06:18;;;;;;;5.03;4.10;;;;;;;21.38;86.24;96583.19;4975045;28;20194;-63
2021/09/11 08:08:44;;;;;;;4.40;4.10;;;;;;;21.45;85.59;96585.53;4975251;28;20198;-64
2021/09/11 08:11:09;;;;;;;4.77;4.37;;;;;;;21.41;85.46;96584.50;4973882;28;20170;-64
2021/09/11 08:13:35;;;;;;;4.20;3.80;;;;;;;21.33;85.75;96585.13;4974794;28;20319;-63
2021/09/11 08:16:01;;;;;;;4.67;4.27;;;;;;;21.36;85.64;96582.69;4975261;28;20198;-64
2021/09/11 08:18:26;;;;;;;4.47;4.07;;;;;;;21.42;85.97;96588.75;4975156;28;20877;-64
2021/09/11 08:20:52;;;;;;;4.30;3.97;;;;;;;21.43;85.49;96588.47;4974952;28;20209;-65
2021/09/11 08:23:18;;;;;;;5.07;4.70;;;;;;;21.57;85.72;96593.91;4973797;28;20174;-64
2021/09/11 08:25:45;;;;;;;4.83;4.53;;;;;;;21.55;85.72;96590.72;4974612;28;20484;-66
2021/09/11 08:28:14;;;;;;;4.17;3.87;;;;;;;21.62;84.64;96591.16;4974878;28;20492;-62
2021/09/11 08:30:40;;;;;;;3.90;3.60;;;;;;;21.76;83.98;96592.00;4974442;28;20440;-69
2021/09/11 08:33:06;;;;;;;4.10;3.80;;;;;;;21.72;84.34;96592.88;4974620;28;20452;-65
2021/09/11 08:35:31;;;;;;;4.47;4.13;;;;;;;21.46;84.69;96600.47;4973588;28;20530;-63
2021/09/11 08:37:56;;;;;;;4.53;4.10;;;;;;;21.63;83.90;96605.31;4973838;28;20197;-56
2021/09/11 08:40:22;;;;;;;4.90;4.50;;;;;;;21.85;83.10;96603.66;4974161;28;20174;-56
2021/09/11 08:42:48;;;;;;;5.43;5.03;;;;;;;21.98;83.07;96594.09;4973751;28;20182;-57
2021/09/11 08:45:14;;;;;;;4.50;4.10;;;;;;;22.04;82.33;96592.94;4973736;28;20268;-56
2021/09/11 08:47:47;;;;;;;4.53;4.07;;;;;;;22.11;82.56;96602.19;4974201;28;20422;-62
2021/09/11 08:50:15;;;;;;;4.73;4.43;;;;;;;22.06;81.67;96598.81;4973829;28;20469;-57
2021/09/11 08:52:46;;;;;;;4.37;3.93;;;;;;;22.03;81.92;96600.16;4972456;28;20811;-59
2021/09/11 08:55:13;;;;;;;4.47;4.17;;;;;;;22.16;82.26;96595.94;4970339;28;20449;-58
2021/09/11 08:57:38;;;;;;;5.70;4.37;;;;;;;22.20;81.40;96594.28;4971083;28;20437;-58
2021/09/11 09:00:06;;;;;;;4.17;3.87;;;;;;;22.31;81.11;96596.50;4971144;28;20442;-61
2021/09/11 09:02:32;;;;;;;3.83;3.53;;;;;;;22.46;81.48;96587.41;4971182;28;20201;-59
2021/09/11 09:04:59;;;;;;;3.60;3.30;;;;;;;22.66;81.89;96587.06;4970233;28;20464;-61
2021/09/11 09:07:35;;;;;;;4.03;3.63;;;;;;;22.81;81.49;96586.00;4972165;28;20182;-62
2021/09/11 09:10:07;;;;;;;3.00;2.53;;;;;;;22.65;76.78;96590.06;4970863;28;20475;-62
2021/09/11 09:12:34;;;;;;;2.83;2.37;;;;;;;22.81;75.54;96586.00;4971256;28;20424;-59
2021/09/11 09:15:08;;;;;;;2.70;2.50;;;;;;;22.94;75.38;96583.31;4970777;28;20437;-57
2021/09/11 09:17:51;;;;;;;4.40;4.00;;;;;;;22.72;74.45;96593.91;4970646;28;20421;-57
2021/09/11 09:20:21;;;;;;;2.90;2.30;;;;;;;22.79;74.49;96586.28;4971098;28;20479;-61
2021/09/11 09:23:00;;;;;;;2.70;2.50;;;;;;;22.71;75.53;96589.66;4970396;28;20437;-57
2021/09/11 09:25:33;;;;;;;3.20;3.00;;;;;;;22.67;76.57;96585.16;4970889;28;20429;-57
2021/09/11 09:28:03;;;;;;;3.17;2.93;;;;;;;22.76;75.11;96581.50;4970844;28;20420;-57
2021/09/11 09:30:42;;;;;;;3.33;3.10;;;;;;;22.80;74.53;96581.72;4970378;28;20417;-61
2021/09/11 09:33:17;;;;;;;3.73;3.40;;;;;;;22.95;74.59;96579.53;4971186;28;20413;-62
2021/09/11 09:35:42;;;;;;;3.87;3.57;;;;;;;23.02;75.13;96581.81;4974489;28;20447;-60
2021/09/11 09:38:10;;;;;;;3.70;3.40;;;;;;;22.98;75.26;96583.50;4974563;28;20939;-58
2021/09/11 09:40:43;;;;;;;3.07;2.87;;;;;;;23.17;75.45;96578.84;4974096;28;20585;-62
2021/09/11 09:43:11;;;;;;;4.47;4.17;;;;;;;23.08;75.13;96580.63;4974213;28;20409;-60
2021/09/11 09:45:37;;;;;;;4.23;3.43;;;;;;;23.21;75.34;96574.44;4974365;28;20967;-62
2021/09/11 09:48:03;;;;;;;3.73;3.43;;;;;;;23.25;74.00;96572.75;4974431;28;20935;-62
2021/09/11 09:50:38;;;;;;;3.37;3.07;;;;;;;23.34;74.59;96576.34;4974326;28;20269;-62
2021/09/11 09:53:04;;;;;;;3.40;3.20;;;;;;;23.54;75.64;96572.41;4973637;28;20523;-62
2021/09/11 09:55:29;;;;;;;3.80;3.27;;;;;;;23.60;75.96;96572.00;4974017;28;20624;-58
2021/09/11 09:57:55;;;;;;;4.27;3.13;;;;;;;23.71;75.46;96569.88;4974189;28;20310;-58
2021/09/11 10:00:20;;;;;;;3.77;3.47;;;;;;;23.78;75.11;96565.69;4974171;28;20637;-58
2021/09/11 10:02:46;;;;;;;3.30;3.10;;;;;;;23.91;74.78;96564.03;4973838;28;20663;-59
2021/09/11 10:05:13;;;;;;;3.80;3.07;;;;;;;24.04;74.78;96561.31;4973589;28;20194;-58
2021/09/11 10:07:47;;;;;;;3.93;3.57;;;;;;;24.07;75.48;96559.91;4989888;28;20208;-57
2021/09/11 10:10:12;;;;;;;3.27;3.00;;;;;;;24.15;73.65;96559.97;4975537;28;20560;-57
2021/09/11 10:12:41;;;;;;;3.40;3.10;;;;;;;24.20;71.71;96549.13;4973368;28;20413;-57
2021/09/11 10:15:33;;;;;;;3.20;2.90;;;;;;;24.24;71.60;96555.44;4973676;28;20198;-61
2021/09/11 10:17:59;;;;;;;3.30;3.00;;;;;;;24.22;69.76;96544.19;4973194;28;20780;-62
2021/09/11 10:20:25;;;;;;;3.43;3.17;;;;;;;24.22;71.01;96548.81;4973662;28;20409;-62
2021/09/11 10:23:08;;;;;;;3.23;3.03;;;;;;;24.20;70.17;96548.31;4973082;28;20433;-61
2021/09/11 10:25:46;;;;;;;3.10;2.90;;;;;;;24.28;71.69;96544.88;4973869;28;20218;-62
2021/09/11 10:28:18;;;;;;;3.50;3.20;;;;;;;24.29;72.36;96543.78;4973618;28;20834;-58
2021/09/11 10:31:16;;;;;;;3.23;3.03;;;;;;;24.34;72.82;96541.75;4973034;28;20418;-62
2021/09/11 10:33:51;;;;;;;3.40;3.10;;;;;;;24.44;72.93;96543.41;4961117;28;20469;-58
2021/09/11 10:36:43;;;;;;;3.40;3.10;;;;;;;24.46;73.31;96541.97;4973423;28;20863;-63
2021/09/11 10:39:10;;;;;;;4.03;2.83;;;;;;;24.46;73.64;96539.28;4973332;28;20477;-58
2021/09/11 10:41:36;;;;;;;3.07;2.80;;;;;;;24.48;73.19;96538.97;4972848;28;20759;-60
2021/09/11 10:44:07;;;;;;;2.87;2.67;;;;;;;24.45;72.63;96529.66;4972586;28;20514;-61
2021/09/11 10:46:49;;;;;;;2.97;2.77;;;;;;;24.48;73.57;96530.13;4972482;28;20257;-60
2021/09/11 10:49:32;;;;;;;3.63;3.37;;;;;;;24.48;73.03;96532.81;4973370;28;20457;-61
2021/09/11 10:52:06;;;;;;;3.13;2.93;;;;;;;24.42;73.56;96532.16;4973282;28;20418;-60
2021/09/11 10:54:38;;;;;;;2.90;2.70;;;;;;;24.35;73.39;96534.47;4972334;28;20412;-61
2021/09/11 10:57:06;;;;;;;4.60;2.83;;;;;;;24.29;73.31;96539.22;4973144;28;20421;-59
2021/09/11 10:59:37;;;;;;;2.97;2.77;;;;;;;24.31;73.11;96539.66;4972402;28;20429;-60
2021/09/11 11:02:33;;;;;;;3.17;2.97;;;;;;;24.08;74.60;96543.50;4973210;28;20409;-61
2021/09/11 11:05:07;;;;;;;3.20;2.93;;;;;;;23.89;76.76;96550.94;4972165;28;20495;-62
2021/09/11 11:07:34;;;;;;;4.77;2.93;;;;;;;23.69;78.49;96551.41;4974833;28;20444;-61
2021/09/11 11:10:02;;;;;;;5.03;3.30;;;;;;;23.39;80.22;96560.13;4972632;28;20485;-64
2021/09/11 11:12:36;;;;;;;3.60;3.30;;;;;;;22.99;81.18;96561.75;4970723;28;20783;-63
2021/09/11 11:15:07;;;;;;;12.33;3.60;;;;;;;22.99;82.30;96566.34;4972381;28;20453;-62
2021/09/11 11:17:44;;;;;;;6.10;2.80;;;;;;;23.04;83.08;96566.22;4971859;28;20982;-65
2021/09/11 11:20:10;;;;;;;4.87;2.87;;;;;;;23.09;83.34;96566.91;4972134;28;20488;-63
2021/09/11 11:22:41;;;;;;;7.13;2.53;;;;;;;23.02;83.15;96573.78;4971682;28;20528;-63
2021/09/11 11:25:10;;;;;;;2.90;2.53;;;;;;;22.92;84.07;96574.75;4971984;28;20449;-65
2021/09/11 11:27:37;;;;;;;3.60;3.10;;;;;;;22.93;84.99;96576.38;4970889;28;20874;-65
2021/09/11 11:30:05;;;;;;;3.57;3.27;;;;;;;22.87;86.10;96564.16;4970395;28;20815;-62
2021/09/11 11:32:32;;;;;;;4.50;3.77;;;;;;;23.00;85.71;96567.91;4972526;28;20417;-62